Time;durP1;ratioP1;P1;durP2;ratioP2;P2;SDS_P1;SDS_P2;PMS_P1;PMS_P2;Temp;Humidity;BMP_temperature;BMP_pressure;BME280_temperature;BME280_humidity;BME280_pressure;Samples;Min_cycle;Max_cycle;Signal;HPM_P1;HPM_P2
2023/04/30 00:00:27;;;;;;;31.17;18.20;;;;;;;;;;4382557;32;331404;-80
2023/04/30 00:02:54;;;;;;;28.67;18.63;;;;;;;;;;4373507;32;319674;-81
2023/04/30 00:05:20;;;;;;;32.73;18.33;;;;;;;;;;4371401;32;342363;-80
2023/04/30 00:07:47;;;;;;;29.63;17.97;;;;;;;;;;4358625;32;318824;-80
2023/04/30 00:10:16;;;;;;;30.33;18.63;;;;;;;;;;4381827;32;318620;-80
2023/04/30 00:12:42;;;;;;;25.83;16.80;;;;;;;;;;4371420;32;349272;-80
2023/04/30 00:15:10;;;;;;;25.93;15.23;;;;;;;;;;4383715;32;319716;-80
2023/04/30 00:17:37;;;;;;;27.70;16.07;;;;;;;;;;4372100;32;319189;-82
2023/04/30 00:20:04;;;;;;;28.53;17.07;;;;;;;;;;4381051;32;357297;-82
2023/04/30 00:22:34;;;;;;;24.40;15.53;;;;;;;;;;4383373;32;318890;-80
2023/04/30 00:25:01;;;;;;;26.20;15.50;;;;;;;;;;4369485;32;418678;-80
2023/04/30 00:27:30;;;;;;;25.00;14.47;;;;;;;;;;4383217;32;319704;-80
2023/04/30 00:29:57;;;;;;;24.70;13.10;;;;;;;;;;4372063;32;319555;-80
2023/04/30 00:32:23;;;;;;;23.63;13.33;;;;;;;;;;4382922;32;318728;-80
2023/04/30 00:34:50;;;;;;;16.30;12.27;;;;;;;;;;4372626;32;318926;-79
2023/04/30 00:37:17;;;;;;;16.63;11.57;;;;;;;;;;4383343;32;319843;-80
2023/04/30 00:39:44;;;;;;;20.73;11.30;;;;;;;;;;4371974;32;319186;-81
2023/04/30 00:42:11;;;;;;;17.20;10.50;;;;;;;;;;4381902;32;319854;-82
2023/04/30 00:44:39;;;;;;;22.53;11.03;;;;;;;;;;4357754;32;319489;-79
2023/04/30 00:47:06;;;;;;;17.97;11.67;;;;;;;;;;4382895;32;319411;-79
2023/04/30 00:49:33;;;;;;;16.60;10.43;;;;;;;;;;4359023;32;320122;-79
2023/04/30 00:52:01;;;;;;;15.00;10.87;;;;;;;;;;4374839;32;319146;-79
2023/04/30 00:54:27;;;;;;;14.00;10.03;;;;;;;;;;4382329;32;319509;-80
2023/04/30 00:56:54;;;;;;;21.67;10.97;;;;;;;;;;4372824;32;319170;-81
2023/04/30 00:59:21;;;;;;;20.67;11.90;;;;;;;;;;4375346;32;318693;-80
2023/04/30 01:01:50;;;;;;;23.43;13.47;;;;;;;;;;4370843;32;319094;-81
2023/04/30 01:04:17;;;;;;;23.70;11.87;;;;;;;;;;4364648;32;317961;-80
2023/04/30 01:06:45;;;;;;;19.60;12.93;;;;;;;;;;4372368;32;319168;-80
2023/04/30 01:09:12;;;;;;;19.47;13.20;;;;;;;;;;4381462;32;319622;-81
2023/04/30 01:11:51;;;;;;;21.70;13.00;;;;;;;;;;4371230;32;330395;-79
2023/04/30 01:14:26;;;;;;;23.90;13.87;;;;;;;;;;4382561;32;319048;-79
2023/04/30 01:17:03;;;;;;;30.17;13.13;;;;;;;;;;4372747;32;319853;-80
2023/04/30 01:19:38;;;;;;;31.97;16.77;;;;;;;;;;4380934;32;358293;-79
2023/04/30 01:22:09;;;;;;;34.80;19.63;;;;;;;;;;4370005;32;418541;-79
2023/04/30 01:24:49;;;;;;;46.03;23.00;;;;;;;;;;4370708;32;319413;-80
2023/04/30 01:27:30;;;;;;;47.07;24.40;;;;;;;;;;4382481;32;319193;-81
2023/04/30 01:30:01;;;;;;;44.43;23.03;;;;;;;;;;4371133;32;319320;-81
2023/04/30 01:32:28;;;;;;;50.63;24.53;;;;;;;;;;4382430;32;319064;-81
2023/04/30 01:34:55;;;;;;;36.83;21.90;;;;;;;;;;4365834;32;318691;-80
2023/04/30 01:37:31;;;;;;;38.37;21.57;;;;;;;;;;4381878;32;318912;-82
2023/04/30 01:40:18;;;;;;;34.10;20.90;;;;;;;;;;4368778;32;418567;-82
2023/04/30 01:42:57;;;;;;;33.47;21.33;;;;;;;;;;4372360;32;319398;-81
2023/04/30 01:45:37;;;;;;;43.40;22.17;;;;;;;;;;4393919;32;319157;-80
2023/04/30 01:48:13;;;;;;;33.67;21.50;;;;;;;;;;4383479;32;420909;-80
2023/04/30 01:50:48;;;;;;;37.80;23.13;;;;;;;;;;4374485;32;319135;-80
2023/04/30 01:53:24;;;;;;;38.10;23.23;;;;;;;;;;4380632;32;318461;-80
2023/04/30 01:55:57;;;;;;;42.43;23.37;;;;;;;;;;4364990;32;318819;-79
2023/04/30 01:58:25;;;;;;;33.47;20.97;;;;;;;;;;4383986;32;319299;-83
2023/04/30 02:00:53;;;;;;;30.57;18.23;;;;;;;;;;4374686;32;319218;-80
2023/04/30 02:03:21;;;;;;;31.63;19.00;;;;;;;;;;4383357;32;318586;-80
2023/04/30 02:05:48;;;;;;;26.67;17.97;;;;;;;;;;4373848;32;319465;-80
2023/04/30 02:08:15;;;;;;;33.30;18.27;;;;;;;;;;4383433;32;319410;-80
2023/04/30 02:10:42;;;;;;;36.57;19.87;;;;;;;;;;4374370;32;337551;-80
2023/04/30 02:13:08;;;;;;;30.67;20.53;;;;;;;;;;4384801;32;318463;-80
2023/04/30 02:15:35;;;;;;;28.57;19.33;;;;;;;;;;4375090;32;318637;-81
2023/04/30 02:18:03;;;;;;;33.73;20.50;;;;;;;;;;4383635;32;318857;-80
2023/04/30 02:20:30;;;;;;;34.30;19.43;;;;;;;;;;4383409;32;319692;-81
2023/04/30 02:22:57;;;;;;;35.90;21.50;;;;;;;;;;4372974;32;357020;-80
2023/04/30 02:25:25;;;;;;;33.50;20.47;;;;;;;;;;4377805;32;318494;-80
2023/04/30 02:27:51;;;;;;;34.93;21.50;;;;;;;;;;4374103;32;319362;-80
2023/04/30 02:30:19;;;;;;;32.97;19.77;;;;;;;;;;4384540;32;319437;-81
2023/04/30 02:32:47;;;;;;;35.33;21.70;;;;;;;;;;4373308;32;319528;-79
2023/04/30 02:35:16;;;;;;;36.37;22.43;;;;;;;;;;4384116;32;319230;-81
2023/04/30 02:37:43;;;;;;;36.20;20.73;;;;;;;;;;4374442;32;319223;-80
2023/04/30 02:40:10;;;;;;;35.30;22.33;;;;;;;;;;4370939;32;319871;-82
2023/04/30 02:42:37;;;;;;;39.43;21.23;;;;;;;;;;4364333;32;318775;-79
2023/04/30 02:45:05;;;;;;;33.77;20.33;;;;;;;;;;4387004;32;318816;-79
2023/04/30 02:47:32;;;;;;;32.97;20.33;;;;;;;;;;4398112;32;319280;-79
2023/04/30 02:49:59;;;;;;;30.20;16.50;;;;;;;;;;4378602;32;419307;-79
2023/04/30 02:52:28;;;;;;;27.13;15.37;;;;;;;;;;4381795;32;318718;-80
2023/04/30 02:54:55;;;;;;;27.90;17.03;;;;;;;;;;4365647;32;358934;-79
2023/04/30 02:57:21;;;;;;;21.67;15.67;;;;;;;;;;4375721;32;318507;-78
2023/04/30 02:59:48;;;;;;;25.20;14.47;;;;;;;;;;4371364;32;319376;-78
2023/04/30 03:02:15;;;;;;;29.97;15.57;;;;;;;;;;4382309;32;319462;-78
2023/04/30 03:04:42;;;;;;;41.90;23.80;;;;;;;;;;4365793;32;318500;-80
2023/04/30 03:07:09;;;;;;;44.50;24.50;;;;;;;;;;4368895;32;319690;-78
2023/04/30 03:09:37;;;;;;;50.90;28.20;;;;;;;;;;4359231;32;319204;-79
2023/04/30 03:12:04;;;;;;;51.03;28.23;;;;;;;;;;4370736;32;319113;-78
2023/04/30 03:14:31;;;;;;;43.73;25.87;;;;;;;;;;4380826;32;318923;-78
2023/04/30 03:16:58;;;;;;;33.90;17.97;;;;;;;;;;4360694;32;357487;-78
2023/04/30 03:19:24;;;;;;;28.53;16.20;;;;;;;;;;4367658;32;318656;-82
2023/04/30 03:21:51;;;;;;;30.27;16.37;;;;;;;;;;4363344;32;318596;-79
2023/04/30 03:24:18;;;;;;;24.03;12.93;;;;;;;;;;4382021;32;319576;-80
2023/04/30 03:26:46;;;;;;;21.03;10.10;;;;;;;;;;4371396;32;354398;-82
2023/04/30 03:29:14;;;;;;;21.40;10.37;;;;;;;;;;4372560;32;318834;-80
2023/04/30 03:31:41;;;;;;;22.17;9.90;;;;;;;;;;4358700;32;319438;-81
2023/04/30 03:34:08;;;;;;;16.50;10.37;;;;;;;;;;4382312;32;318201;-80
2023/04/30 03:36:35;;;;;;;18.47;10.10;;;;;;;;;;4372665;32;319125;-81
2023/04/30 03:39:03;;;;;;;14.60;9.97;;;;;;;;;;4383809;32;319318;-80
2023/04/30 03:41:32;;;;;;;19.00;9.77;;;;;;;;;;4374721;32;317811;-80
2023/04/30 03:44:03;;;;;;;18.80;10.07;;;;;;;;;;4370198;32;417992;-80
2023/04/30 03:46:38;;;;;;;16.43;11.27;;;;;;;;;;4367309;32;356749;-80
2023/04/30 03:49:05;;;;;;;23.83;14.20;;;;;;;;;;4356615;32;418438;-80
2023/04/30 03:51:32;;;;;;;26.50;16.03;;;;;;;;;;4382315;32;319274;-80
2023/04/30 03:53:59;;;;;;;26.30;15.93;;;;;;;;;;4367327;32;419503;-79
2023/04/30 03:56:25;;;;;;;24.83;14.13;;;;;;;;;;4373837;32;318544;-80
2023/04/30 03:58:52;;;;;;;20.30;12.47;;;;;;;;;;4371619;32;319345;-79
2023/04/30 04:01:20;;;;;;;17.93;11.37;;;;;;;;;;4381448;32;319385;-80
2023/04/30 04:03:47;;;;;;;19.77;10.67;;;;;;;;;;4370607;32;319501;-79
2023/04/30 04:06:14;;;;;;;15.50;10.83;;;;;;;;;;4366040;32;348585;-79
2023/04/30 04:08:42;;;;;;;17.47;11.37;;;;;;;;;;4358290;32;319528;-80
2023/04/30 04:11:13;;;;;;;20.63;11.03;;;;;;;;;;4368111;32;319284;-80
2023/04/30 04:13:41;;;;;;;16.67;10.77;;;;;;;;;;4358276;32;319506;-82
2023/04/30 04:16:08;;;;;;;23.13;10.67;;;;;;;;;;4368113;32;319368;-79
2023/04/30 04:18:36;;;;;;;15.03;9.23;;;;;;;;;;4349812;32;318754;-79
2023/04/30 04:21:03;;;;;;;20.87;10.30;;;;;;;;;;4366963;32;317502;-80
2023/04/30 04:23:30;;;;;;;17.27;10.40;;;;;;;;;;4366690;32;319276;-80
2023/04/30 04:25:57;;;;;;;12.80;9.67;;;;;;;;;;4356272;32;346529;-80
2023/04/30 04:28:24;;;;;;;17.23;10.93;;;;;;;;;;4378456;32;318418;-79
2023/04/30 04:30:51;;;;;;;17.23;10.93;;;;;;;;;;4370529;32;318464;-80
2023/04/30 04:33:19;;;;;;;16.07;10.60;;;;;;;;;;4380970;32;319365;-82
2023/04/30 04:35:47;;;;;;;23.30;12.87;;;;;;;;;;4371697;32;319613;-80
2023/04/30 04:38:14;;;;;;;25.00;15.13;;;;;;;;;;4381758;32;318926;-80
2023/04/30 04:40:41;;;;;;;32.03;14.23;;;;;;;;;;4371070;32;352390;-81
2023/04/30 04:43:07;;;;;;;29.93;14.87;;;;;;;;;;4383126;32;319091;-80
2023/04/30 04:45:34;;;;;;;32.93;18.57;;;;;;;;;;4377480;32;319329;-81
2023/04/30 04:48:01;;;;;;;24.83;14.83;;;;;;;;;;4396624;32;319803;-82
2023/04/30 04:50:28;;;;;;;21.83;13.93;;;;;;;;;;4386843;32;319165;-82
2023/04/30 04:52:56;;;;;;;18.03;11.87;;;;;;;;;;4366998;32;319459;-77
2023/04/30 04:55:27;;;;;;;20.53;12.63;;;;;;;;;;4367714;32;319150;-80
2023/04/30 04:57:54;;;;;;;18.23;12.70;;;;;;;;;;4366584;32;319723;-79
2023/04/30 05:00:22;;;;;;;18.63;12.67;;;;;;;;;;4364039;32;318819;-80
2023/04/30 05:02:48;;;;;;;46.53;33.80;;;;;;;;;;4382123;32;319161;-80
2023/04/30 05:05:15;;;;;;;16.73;11.00;;;;;;;;;;4355959;32;319145;-79
2023/04/30 05:07:43;;;;;;;21.50;14.40;;;;;;;;;;4380234;32;319622;-80
2023/04/30 05:10:11;;;;;;;25.60;14.97;;;;;;;;;;4372899;32;319294;-78
2023/04/30 05:12:38;;;;;;;29.80;16.40;;;;;;;;;;4382220;32;318538;-79
2023/04/30 05:15:05;;;;;;;28.63;16.97;;;;;;;;;;4372674;32;319076;-79
2023/04/30 05:17:32;;;;;;;29.00;18.17;;;;;;;;;;4381103;32;324069;-78
2023/04/30 05:19:59;;;;;;;31.67;18.13;;;;;;;;;;4372575;32;318520;-79
2023/04/30 05:22:25;;;;;;;23.73;15.93;;;;;;;;;;4381855;32;318807;-79
2023/04/30 05:24:52;;;;;;;26.10;15.30;;;;;;;;;;4372837;32;318599;-79
2023/04/30 05:27:20;;;;;;;27.83;16.53;;;;;;;;;;4381630;32;320039;-81
2023/04/30 05:29:48;;;;;;;24.50;15.07;;;;;;;;;;4382053;32;334415;-81
2023/04/30 05:32:14;;;;;;;18.57;13.40;;;;;;;;;;4374705;32;319303;-80
2023/04/30 05:34:41;;;;;;;21.97;12.83;;;;;;;;;;4373924;32;323668;-79
2023/04/30 05:37:08;;;;;;;20.63;13.30;;;;;;;;;;4359376;32;319336;-81
2023/04/30 05:39:35;;;;;;;26.63;13.43;;;;;;;;;;4370663;32;319981;-80
2023/04/30 05:42:02;;;;;;;29.57;17.23;;;;;;;;;;4360349;32;319349;-80
2023/04/30 05:44:30;;;;;;;30.30;18.77;;;;;;;;;;4364090;32;318517;-80
2023/04/30 05:46:57;;;;;;;30.23;15.93;;;;;;;;;;4371407;32;319369;-80
2023/04/30 05:49:24;;;;;;;27.93;17.83;;;;;;;;;;4382246;32;318691;-78
2023/04/30 05:51:50;;;;;;;29.87;18.87;;;;;;;;;;4369427;32;319766;-79
2023/04/30 05:54:17;;;;;;;28.53;17.73;;;;;;;;;;4370730;32;420183;-78
2023/04/30 05:56:44;;;;;;;25.27;16.33;;;;;;;;;;4383049;32;319283;-79
2023/04/30 05:59:11;;;;;;;26.27;17.33;;;;;;;;;;4375010;32;319125;-78
2023/04/30 06:01:40;;;;;;;39.60;23.33;;;;;;;;;;4376257;32;319457;-78
2023/04/30 06:04:08;;;;;;;28.60;20.67;;;;;;;;;;4370173;32;319478;-79
2023/04/30 06:06:35;;;;;;;28.20;18.20;;;;;;;;;;4368376;32;318763;-78
2023/04/30 06:09:02;;;;;;;27.03;17.80;;;;;;;;;;4351689;32;319597;-78
2023/04/30 06:11:29;;;;;;;25.17;17.83;;;;;;;;;;4368714;32;319386;-80
2023/04/30 06:13:57;;;;;;;29.87;17.13;;;;;;;;;;4353535;32;319302;-80
2023/04/30 06:16:24;;;;;;;27.67;15.93;;;;;;;;;;4368960;32;318677;-81
2023/04/30 06:18:52;;;;;;;24.13;15.77;;;;;;;;;;4381775;32;319218;-81
2023/04/30 06:21:20;;;;;;;21.60;15.70;;;;;;;;;;4361800;32;417078;-82
2023/04/30 06:23:46;;;;;;;20.73;14.83;;;;;;;;;;4384132;32;319219;-79
2023/04/30 06:26:14;;;;;;;28.93;16.87;;;;;;;;;;4373265;32;319314;-80
2023/04/30 06:28:40;;;;;;;22.17;16.00;;;;;;;;;;4384705;32;319787;-81
2023/04/30 06:31:07;;;;;;;33.30;19.00;;;;;;;;;;4368609;32;319560;-80
2023/04/30 06:33:37;;;;;;;24.90;17.13;;;;;;;;;;4383227;32;319302;-80
2023/04/30 06:36:05;;;;;;;26.57;16.20;;;;;;;;;;4374462;32;319157;-78
2023/04/30 06:38:32;;;;;;;27.97;17.27;;;;;;;;;;4367932;32;318556;-80
2023/04/30 06:40:59;;;;;;;23.93;16.50;;;;;;;;;;4373028;32;344635;-78
2023/04/30 06:43:26;;;;;;;22.27;15.33;;;;;;;;;;4383545;32;318603;-80
2023/04/30 06:45:53;;;;;;;27.67;16.40;;;;;;;;;;4383097;32;318755;-79
2023/04/30 06:48:19;;;;;;;18.60;11.87;;;;;;;;;;4399104;32;319194;-79
2023/04/30 06:50:46;;;;;;;18.13;10.33;;;;;;;;;;4387264;32;318725;-79
2023/04/30 06:53:17;;;;;;;12.50;7.53;;;;;;;;;;4373581;32;319825;-81
2023/04/30 06:55:45;;;;;;;11.17;7.53;;;;;;;;;;4383490;32;318406;-80
2023/04/30 06:58:12;;;;;;;11.37;7.80;;;;;;;;;;4367372;32;317813;-83
2023/04/30 07:00:39;;;;;;;24.17;7.93;;;;;;;;;;4362838;32;325147;-79
2023/04/30 07:03:06;;;;;;;17.53;8.33;;;;;;;;;;4373177;32;318198;-81
2023/04/30 07:05:33;;;;;;;20.03;9.47;;;;;;;;;;4382458;32;318364;-80
2023/04/30 07:08:02;;;;;;;15.73;8.67;;;;;;;;;;4372067;32;318598;-80
2023/04/30 07:10:31;;;;;;;13.27;8.30;;;;;;;;;;4384024;32;317845;-81
2023/04/30 07:12:58;;;;;;;15.23;7.97;;;;;;;;;;4374437;32;318431;-81
2023/04/30 07:15:25;;;;;;;10.75;6.43;;;;;;;;;;4383343;32;318282;-81
2023/04/30 07:17:52;;;;;;;13.07;9.03;;;;;;;;;;4373860;32;318290;-80
2023/04/30 07:20:19;;;;;;;11.77;7.90;;;;;;;;;;4384456;32;318076;-81
2023/04/30 07:22:46;;;;;;;15.70;8.73;;;;;;;;;;4382522;32;318444;-80
2023/04/30 07:25:13;;;;;;;35.13;12.20;;;;;;;;;;4372340;32;321960;-81
2023/04/30 07:27:42;;;;;;;21.40;8.40;;;;;;;;;;4384205;32;319522;-80
2023/04/30 07:30:09;;;;;;;14.02;8.93;;;;;;;;;;4373786;32;318435;-81
2023/04/30 07:32:37;;;;;;;16.52;9.50;;;;;;;;;;4382838;32;318722;-81
2023/04/30 07:35:05;;;;;;;22.60;10.27;;;;;;;;;;4373982;32;318283;-81
2023/04/30 07:37:32;;;;;;;16.80;10.53;;;;;;;;;;4383901;32;319259;-82
2023/04/30 07:39:59;;;;;;;28.40;10.20;;;;;;;;;;4366453;32;318547;-81
2023/04/30 07:42:25;;;;;;;21.17;12.52;;;;;;;;;;4394746;32;319307;-81
2023/04/30 07:44:54;;;;;;;23.53;12.77;;;;;;;;;;4372066;32;319467;-82
2023/04/30 07:47:20;;;;;;;18.07;11.30;;;;;;;;;;4383024;32;319309;-82
2023/04/30 07:49:47;;;;;;;23.77;12.73;;;;;;;;;;4381956;32;319010;-83
2023/04/30 07:52:14;;;;;;;16.00;11.47;;;;;;;;;;4372031;32;319361;-81
2023/04/30 07:54:41;;;;;;;16.83;10.85;;;;;;;;;;4381169;32;339067;-81
2023/04/30 07:57:08;;;;;;;20.80;11.02;;;;;;;;;;4358907;32;319409;-81
2023/04/30 07:59:35;;;;;;;20.97;11.63;;;;;;;;;;4382617;32;318556;-81
2023/04/30 08:02:05;;;;;;;20.08;11.77;;;;;;;;;;4367485;32;320012;-81
2023/04/30 08:04:31;;;;;;;22.60;11.80;;;;;;;;;;4375249;32;319365;-81
2023/04/30 08:07:00;;;;;;;25.83;14.60;;;;;;;;;;4348534;32;319313;-80
2023/04/30 08:09:26;;;;;;;20.70;13.55;;;;;;;;;;4367808;32;319607;-81
2023/04/30 08:11:53;;;;;;;21.70;12.25;;;;;;;;;;4357060;32;319297;-82
2023/04/30 08:14:21;;;;;;;17.20;11.18;;;;;;;;;;4366333;32;341435;-82
2023/04/30 08:16:48;;;;;;;21.95;7.93;;;;;;;;;;4353759;32;318792;-81
2023/04/30 08:19:16;;;;;;;16.08;9.23;;;;;;;;;;4358073;32;318347;-81
2023/04/30 08:21:43;;;;;;;12.30;8.63;;;;;;;;;;4354319;32;318377;-81
2023/04/30 08:24:09;;;;;;;13.50;7.70;;;;;;;;;;4358365;32;318228;-82
2023/04/30 08:26:36;;;;;;;23.83;8.40;;;;;;;;;;4366651;32;318368;-80
2023/04/30 08:29:03;;;;;;;23.52;10.18;;;;;;;;;;4358115;32;318153;-81
2023/04/30 08:31:30;;;;;;;19.20;8.63;;;;;;;;;;4373830;32;318666;-80
2023/04/30 08:33:56;;;;;;;20.15;11.35;;;;;;;;;;4370210;32;348124;-80
2023/04/30 08:36:26;;;;;;;18.55;9.32;;;;;;;;;;4367780;32;318335;-79
2023/04/30 08:38:53;;;;;;;15.38;7.47;;;;;;;;;;4372677;32;318142;-81
2023/04/30 08:41:27;;;;;;;10.07;5.43;;;;;;;;;;4383434;32;318326;-78
2023/04/30 08:43:53;;;;;;;11.77;7.60;;;;;;;;;;4373394;32;318271;-79
2023/04/30 08:46:22;;;;;;;14.73;8.20;;;;;;;;;;4392519;32;318713;-79
2023/04/30 08:48:49;;;;;;;12.82;7.68;;;;;;;;;;4396555;32;318152;-80
2023/04/30 08:51:15;;;;;;;13.35;8.73;;;;;;;;;;4356327;32;317713;-80
2023/04/30 08:53:45;;;;;;;13.32;8.32;;;;;;;;;;4366347;32;318286;-80
2023/04/30 08:56:12;;;;;;;14.60;8.65;;;;;;;;;;4359981;32;324529;-80
2023/04/30 08:58:40;;;;;;;13.75;7.55;;;;;;;;;;4382671;32;318787;-79
2023/04/30 09:01:10;;;;;;;23.52;9.85;;;;;;;;;;4372096;32;318164;-80
2023/04/30 09:03:38;;;;;;;29.83;13.73;;;;;;;;;;4380360;32;337471;-79
2023/04/30 09:06:05;;;;;;;20.10;12.50;;;;;;;;;;4356182;32;319130;-78
2023/04/30 09:08:42;;;;;;;38.25;13.48;;;;;;;;;;4364359;32;319164;-80
2023/04/30 09:11:27;;;;;;;23.83;13.90;;;;;;;;;;4375229;32;318837;-80
2023/04/30 09:13:56;;;;;;;25.50;11.85;;;;;;;;;;4374509;32;319452;-81
2023/04/30 09:16:24;;;;;;;12.60;9.52;;;;;;;;;;4385582;32;319115;-81
2023/04/30 09:18:55;;;;;;;32.92;17.52;;;;;;;;;;4385211;32;317551;-80
2023/04/30 09:21:32;;;;;;;19.05;10.57;;;;;;;;;;4372671;32;420194;-80
2023/04/30 09:24:00;;;;;;;12.80;8.77;;;;;;;;;;4375342;32;319648;-81
2023/04/30 09:26:34;;;;;;;17.02;8.10;;;;;;;;;;4385277;32;318251;-80
2023/04/30 09:29:06;;;;;;;11.18;7.15;;;;;;;;;;4368895;32;317666;-80
2023/04/30 09:31:36;;;;;;;18.02;6.45;;;;;;;;;;4384894;32;318317;-79
2023/04/30 09:34:04;;;;;;;10.13;4.68;;;;;;;;;;4361277;32;318298;-80
2023/04/30 09:36:31;;;;;;;13.85;5.37;;;;;;;;;;4384733;32;317734;-80
2023/04/30 09:39:06;;;;;;;11.52;5.70;;;;;;;;;;4373923;32;319344;-83
2023/04/30 09:41:35;;;;;;;11.30;6.15;;;;;;;;;;4383476;32;317710;-80
2023/04/30 09:44:02;;;;;;;12.80;7.55;;;;;;;;;;4374556;32;317951;-80
2023/04/30 09:46:33;;;;;;;10.40;6.37;;;;;;;;;;4382707;32;349660;-80
2023/04/30 09:49:01;;;;;;;14.80;4.95;;;;;;;;;;4374740;32;318331;-80
2023/04/30 09:51:29;;;;;;;13.95;6.07;;;;;;;;;;4382632;32;352361;-80
2023/04/30 09:53:57;;;;;;;15.23;8.32;;;;;;;;;;4365787;32;341990;-82
2023/04/30 09:56:25;;;;;;;11.82;7.37;;;;;;;;;;4384646;32;317517;-78
2023/04/30 09:58:55;;;;;;;12.95;7.62;;;;;;;;;;4374194;32;318238;-79
2023/04/30 10:01:26;;;;;;;12.05;8.60;;;;;;;;;;4382860;32;317719;-79
2023/04/30 10:03:54;;;;;;;7.12;5.53;;;;;;;;;;4371845;32;318248;-78
2023/04/30 10:06:21;;;;;;;7.12;5.00;;;;;;;;;;4368731;32;317277;-80
2023/04/30 10:08:51;;;;;;;9.20;5.85;;;;;;;;;;4380071;32;317052;-79
2023/04/30 10:11:20;;;;;;;9.88;6.12;;;;;;;;;;4371784;32;416627;-78
2023/04/30 10:13:54;;;;;;;6.25;5.25;;;;;;;;;;4385219;32;317516;-78
2023/04/30 10:16:43;;;;;;;6.37;5.10;;;;;;;;;;4371861;32;416401;-78
2023/04/30 10:19:14;;;;;;;10.68;4.82;;;;;;;;;;4373970;32;316871;-77
2023/04/30 10:21:42;;;;;;;5.68;4.75;;;;;;;;;;4383742;32;318275;-78
2023/04/30 10:24:12;;;;;;;4.40;3.35;;;;;;;;;;4360954;32;325894;-82
2023/04/30 10:26:40;;;;;;;4.57;3.10;;;;;;;;;;4384143;32;316866;-81
2023/04/30 10:29:07;;;;;;;3.85;2.65;;;;;;;;;;4374530;32;326924;-82
2023/04/30 10:31:37;;;;;;;5.62;3.55;;;;;;;;;;4383783;32;317343;-82
2023/04/30 10:34:09;;;;;;;5.93;3.00;;;;;;;;;;4373357;32;317125;-81
2023/04/30 10:36:41;;;;;;;8.38;3.00;;;;;;;;;;4384392;32;317441;-81
2023/04/30 10:39:08;;;;;;;6.57;3.10;;;;;;;;;;4373260;32;317425;-79
2023/04/30 10:41:35;;;;;;;4.25;3.15;;;;;;;;;;4384014;32;317288;-79
2023/04/30 10:44:04;;;;;;;6.25;3.47;;;;;;;;;;4373314;32;317594;-80
2023/04/30 10:46:31;;;;;;;5.00;3.45;;;;;;;;;;4395595;32;317468;-82
2023/04/30 10:49:00;;;;;;;9.95;3.78;;;;;;;;;;4383171;32;317330;-80
2023/04/30 10:51:45;;;;;;;5.10;3.53;;;;;;;;;;4381101;32;317052;-82
2023/04/30 10:54:16;;;;;;;5.85;3.42;;;;;;;;;;4366054;32;316738;-80
2023/04/30 10:56:47;;;;;;;5.95;3.95;;;;;;;;;;4375906;32;317763;-81
2023/04/30 10:59:15;;;;;;;5.80;4.22;;;;;;;;;;4371646;32;317661;-80
2023/04/30 11:02:00;;;;;;;5.43;4.12;;;;;;;;;;4382302;32;316577;-79
2023/04/30 11:04:28;;;;;;;4.85;4.18;;;;;;;;;;4364210;32;416164;-79
2023/04/30 11:07:02;;;;;;;11.70;5.05;;;;;;;;;;4353628;32;347701;-80
2023/04/30 11:09:40;;;;;;;8.10;4.40;;;;;;;;;;4366871;32;319070;-80
2023/04/30 11:12:13;;;;;;;9.43;4.55;;;;;;;;;;4343444;32;316746;-80
2023/04/30 11:14:43;;;;;;;7.07;4.30;;;;;;;;;;4367395;32;317431;-81
2023/04/30 11:17:11;;;;;;;12.15;4.60;;;;;;;;;;4356964;32;316727;-81
2023/04/30 11:19:48;;;;;;;7.80;5.10;;;;;;;;;;4377483;32;318695;-80
2023/04/30 11:22:20;;;;;;;10.60;5.15;;;;;;;;;;4373679;32;317727;-81
2023/04/30 11:24:52;;;;;;;10.70;4.75;;;;;;;;;;4382578;32;318581;-80
2023/04/30 11:27:20;;;;;;;9.52;5.28;;;;;;;;;;4367335;32;420509;-81
2023/04/30 11:29:50;;;;;;;13.65;9.85;;;;;;;;;;4383137;32;317567;-81
2023/04/30 11:32:18;;;;;;;9.32;7.32;;;;;;;;;;4357632;32;419855;-81
2023/04/30 11:34:46;;;;;;;4.95;4.55;;;;;;;;;;4365483;32;316595;-80
2023/04/30 11:37:19;;;;;;;5.82;4.75;;;;;;;;;;4358397;32;317413;-80
2023/04/30 11:39:48;;;;;;;9.48;5.62;;;;;;;;;;4368237;32;317290;-81
2023/04/30 11:42:20;;;;;;;9.02;4.70;;;;;;;;;;4358087;32;339005;-81
2023/04/30 11:44:47;;;;;;;10.15;5.10;;;;;;;;;;4358057;32;317201;-81
2023/04/30 11:47:18;;;;;;;8.77;5.57;;;;;;;;;;4372139;32;318286;-80
2023/04/30 11:49:46;;;;;;;4.97;4.40;;;;;;;;;;4384712;32;317698;-80
2023/04/30 11:52:13;;;;;;;7.20;4.82;;;;;;;;;;4372970;32;342654;-80
2023/04/30 11:54:40;;;;;;;14.77;5.32;;;;;;;;;;4386729;32;317263;-80
2023/04/30 11:57:07;;;;;;;11.50;4.65;;;;;;;;;;4377105;32;318438;-80
2023/04/30 11:59:42;;;;;;;7.25;5.07;;;;;;;;;;4387802;32;317953;-82
2023/04/30 12:02:09;;;;;;;10.88;4.32;;;;;;;;;;4369238;32;316618;-82
2023/04/30 12:04:36;;;;;;;5.97;4.40;;;;;;;;;;4377172;32;317619;-81
2023/04/30 12:07:08;;;;;;;6.03;4.20;;;;;;;;;;4357594;32;354288;-81
2023/04/30 12:09:53;;;;;;;6.90;4.20;;;;;;;;;;4384549;32;317179;-81
2023/04/30 12:12:27;;;;;;;6.00;4.15;;;;;;;;;;4371674;32;418043;-81
2023/04/30 12:14:54;;;;;;;5.12;3.72;;;;;;;;;;4376929;32;317625;-81
2023/04/30 12:17:34;;;;;;;9.70;4.03;;;;;;;;;;4387117;32;317169;-79
2023/04/30 12:20:03;;;;;;;8.90;4.65;;;;;;;;;;4375350;32;317260;-81
2023/04/30 12:22:33;;;;;;;8.45;4.97;;;;;;;;;;4375578;32;316768;-81
2023/04/30 12:25:01;;;;;;;8.50;5.32;;;;;;;;;;4371883;32;317096;-82
2023/04/30 12:27:28;;;;;;;6.32;4.70;;;;;;;;;;4382214;32;317276;-79
2023/04/30 12:29:56;;;;;;;5.12;4.25;;;;;;;;;;4371791;32;317300;-79
2023/04/30 12:32:22;;;;;;;6.03;4.43;;;;;;;;;;4382120;32;317427;-81
2023/04/30 12:34:50;;;;;;;8.32;5.25;;;;;;;;;;4382912;32;317368;-80
2023/04/30 12:37:20;;;;;;;11.20;4.57;;;;;;;;;;4370445;32;416689;-81
2023/04/30 12:39:48;;;;;;;14.38;4.72;;;;;;;;;;4381561;32;317653;-80
2023/04/30 12:42:19;;;;;;;6.05;4.05;;;;;;;;;;4364021;32;317674;-80
2023/04/30 12:44:46;;;;;;;8.63;3.78;;;;;;;;;;4382423;32;316689;-80
2023/04/30 12:47:15;;;;;;;7.87;3.80;;;;;;;;;;4372846;32;317509;-81
2023/04/30 12:49:44;;;;;;;7.85;4.35;;;;;;;;;;4381600;32;317210;-80
2023/04/30 12:52:14;;;;;;;7.82;5.05;;;;;;;;;;4373063;32;317200;-81
2023/04/30 12:54:41;;;;;;;10.98;5.18;;;;;;;;;;4381794;32;317492;-80
2023/04/30 12:57:10;;;;;;;7.37;4.80;;;;;;;;;;4370758;32;317911;-81
2023/04/30 12:59:39;;;;;;;13.98;5.47;;;;;;;;;;4382795;32;317377;-81
2023/04/30 13:02:10;;;;;;;6.75;3.37;;;;;;;;;;4366007;32;318673;-81
2023/04/30 13:04:37;;;;;;;8.38;5.20;;;;;;;;;;4376194;32;317123;-81
2023/04/30 13:07:04;;;;;;;6.75;3.55;;;;;;;;;;4357888;32;317126;-81
2023/04/30 13:09:32;;;;;;;5.47;3.75;;;;;;;;;;4382227;32;317235;-81
2023/04/30 13:11:59;;;;;;;5.77;3.90;;;;;;;;;;4366991;32;317300;-83
2023/04/30 13:14:28;;;;;;;6.55;3.90;;;;;;;;;;4381522;32;317068;-82
2023/04/30 13:16:55;;;;;;;5.62;4.32;;;;;;;;;;4369975;32;317070;-81
2023/04/30 13:19:23;;;;;;;5.57;3.92;;;;;;;;;;4381470;32;317336;-80
2023/04/30 13:21:50;;;;;;;7.57;3.40;;;;;;;;;;4372283;32;317666;-81
2023/04/30 13:24:17;;;;;;;3.42;2.92;;;;;;;;;;4381225;32;317331;-82
2023/04/30 13:26:44;;;;;;;3.53;3.20;;;;;;;;;;4382223;32;317016;-81
2023/04/30 13:29:11;;;;;;;5.65;3.50;;;;;;;;;;4369314;32;418233;-81
2023/04/30 13:31:41;;;;;;;4.20;3.35;;;;;;;;;;4381937;32;317324;-81
2023/04/30 13:34:08;;;;;;;7.47;3.40;;;;;;;;;;4372441;32;317478;-81
2023/04/30 13:36:36;;;;;;;6.00;3.65;;;;;;;;;;4382293;32;317495;-81
2023/04/30 13:39:03;;;;;;;4.63;2.53;;;;;;;;;;4369128;32;316711;-81
2023/04/30 13:41:31;;;;;;;12.15;2.62;;;;;;;;;;4381022;32;317039;-83
2023/04/30 13:43:58;;;;;;;6.05;3.25;;;;;;;;;;4371153;32;318256;-79
2023/04/30 13:46:25;;;;;;;4.87;2.92;;;;;;;;;;4366929;32;322398;-80
2023/04/30 13:48:54;;;;;;;2.53;2.33;;;;;;;;;;4348394;32;316716;-80
2023/04/30 13:51:21;;;;;;;8.13;3.17;;;;;;;;;;4366807;32;317544;-80
2023/04/30 13:53:48;;;;;;;4.85;3.12;;;;;;;;;;4358462;32;317376;-81
2023/04/30 13:56:15;;;;;;;6.72;3.65;;;;;;;;;;4368119;32;349807;-81
2023/04/30 13:58:42;;;;;;;3.40;2.83;;;;;;;;;;4368450;32;317577;-81
2023/04/30 14:01:09;;;;;;;6.75;2.90;;;;;;;;;;4360136;32;327392;-81
2023/04/30 14:03:35;;;;;;;8.63;3.45;;;;;;;;;;4384890;32;317292;-80
2023/04/30 14:06:04;;;;;;;5.18;2.80;;;;;;;;;;4360059;32;317378;-80
2023/04/30 14:08:32;;;;;;;3.30;2.97;;;;;;;;;;4368189;32;316581;-79
2023/04/30 14:10:59;;;;;;;4.43;3.42;;;;;;;;;;4358938;32;317665;-81
2023/04/30 14:13:26;;;;;;;2.80;2.40;;;;;;;;;;4369722;32;316645;-81
2023/04/30 14:15:53;;;;;;;10.90;2.40;;;;;;;;;;4345918;32;317678;-81
2023/04/30 14:18:21;;;;;;;7.65;2.95;;;;;;;;;;4346588;32;317706;-81
2023/04/30 14:20:48;;;;;;;3.62;2.97;;;;;;;;;;4363615;32;316461;-82